Time;durP1;ratioP1;P1;durP2;ratioP2;P2;SDS_P1;SDS_P2;PMS_P1;PMS_P2;Temp;Humidity;BMP_temperature;BMP_pressure;BME280_temperature;BME280_humidity;BME280_pressure;Samples;Min_cycle;Max_cycle;Signal;HPM_P1;HPM_P2
2023/03/29 00:00:09;;;;;;;10.75;10.15;;;;;;;;;;5102788;28;20044;-69
2023/03/29 00:02:35;;;;;;;10.88;10.27;;;;;;;;;;5121602;27;20402;-69
2023/03/29 00:05:00;;;;;;;10.55;9.95;;;;;;;;;;5115866;28;20012;-70
2023/03/29 00:07:28;;;;;;;10.70;10.10;;;;;;;;;;5114391;28;20019;-69
2023/03/29 00:09:54;;;;;;;9.85;9.35;;;;;;;;;;5114214;28;20069;-70
2023/03/29 00:12:19;;;;;;;10.25;9.75;;;;;;;;;;5103127;28;20023;-70
2023/03/29 00:14:45;;;;;;;10.65;10.05;;;;;;;;;;5098298;28;20057;-70
2023/03/29 00:17:10;;;;;;;10.73;10.13;;;;;;;;;;5106350;28;20043;-71
2023/03/29 00:19:35;;;;;;;9.95;9.45;;;;;;;;;;5107300;28;20023;-70
2023/03/29 00:22:01;;;;;;;10.25;9.75;;;;;;;;;;5113874;28;20098;-71
2023/03/29 00:24:27;;;;;;;10.75;10.15;;;;;;;;;;5114123;28;20471;-71
2023/03/29 00:26:53;;;;;;;10.77;10.18;;;;;;;;;;5114009;28;20076;-70
2023/03/29 00:29:18;;;;;;;11.13;10.52;;;;;;;;;;5112946;28;20020;-71
2023/03/29 00:31:51;;;;;;;11.00;10.40;;;;;;;;;;5113015;28;20042;-72
2023/03/29 00:34:16;;;;;;;11.38;10.70;;;;;;;;;;5113282;28;20023;-72
2023/03/29 00:36:42;;;;;;;10.60;10.10;;;;;;;;;;5095594;28;20019;-72
2023/03/29 00:39:08;;;;;;;12.43;11.63;;;;;;;;;;5113775;28;20094;-71
2023/03/29 00:41:33;;;;;;;10.38;9.88;;;;;;;;;;5095714;28;20104;-70
2023/03/29 00:44:00;;;;;;;11.10;10.50;;;;;;;;;;5112706;28;20022;-70
2023/03/29 00:46:26;;;;;;;10.25;9.75;;;;;;;;;;5112663;28;20023;-71
2023/03/29 00:48:53;;;;;;;10.63;10.13;;;;;;;;;;5110469;27;20103;-70
2023/03/29 00:51:20;;;;;;;11.38;10.75;;;;;;;;;;5113173;28;20015;-70
2023/03/29 00:53:49;;;;;;;10.27;9.77;;;;;;;;;;5115394;27;20032;-70
2023/03/29 00:56:35;;;;;;;10.65;10.15;;;;;;;;;;5111313;28;20045;-69
2023/03/29 00:59:05;;;;;;;10.90;10.30;;;;;;;;;;5113062;28;20044;-71
2023/03/29 01:01:37;;;;;;;10.68;10.15;;;;;;;;;;5115919;27;20043;-70
2023/03/29 01:04:08;;;;;;;10.68;10.13;;;;;;;;;;5111152;28;20029;-70
2023/03/29 01:06:36;;;;;;;11.13;10.52;;;;;;;;;;5099152;28;20439;-70
2023/03/29 01:09:08;;;;;;;10.90;10.30;;;;;;;;;;5113124;28;20042;-70
2023/03/29 01:11:36;;;;;;;10.95;10.35;;;;;;;;;;5113161;28;20021;-71
2023/03/29 01:14:06;;;;;;;11.10;10.50;;;;;;;;;;5094490;28;20027;-70
2023/03/29 01:16:34;;;;;;;10.95;10.35;;;;;;;;;;5103012;28;20016;-70
2023/03/29 01:19:01;;;;;;;10.82;10.25;;;;;;;;;;5112621;28;20020;-70
2023/03/29 01:21:35;;;;;;;12.32;11.52;;;;;;;;;;5110442;28;20016;-70
2023/03/29 01:24:05;;;;;;;;;;;;;;;;;;5087273;28;20015;-70
2023/03/29 01:26:33;;;;;;;10.32;9.82;;;;;;;;;;5112865;28;19963;-69
2023/03/29 01:29:22;;;;;;;10.43;9.93;;;;;;;;;;5112844;28;20483;-69
2023/03/29 01:31:50;;;;;;;11.88;11.18;;;;;;;;;;5072666;28;20059;-70
2023/03/29 01:34:21;;;;;;;11.75;11.05;;;;;;;;;;5094042;28;20026;-69
2023/03/29 01:36:48;;;;;;;11.95;11.25;;;;;;;;;;5110724;28;20016;-70
2023/03/29 01:39:13;;;;;;;11.68;10.98;;;;;;;;;;5112351;28;20020;-69
2023/03/29 01:41:47;;;;;;;11.68;10.98;;;;;;;;;;5098581;28;20034;-70
2023/03/29 01:44:18;;;;;;;11.13;10.53;;;;;;;;;;5115399;27;20025;-69
2023/03/29 01:46:43;;;;;;;11.30;10.70;;;;;;;;;;5119436;27;20112;-69
2023/03/29 01:49:15;;;;;;;11.75;11.05;;;;;;;;;;5112105;28;20081;-70
2023/03/29 01:51:42;;;;;;;11.77;11.07;;;;;;;;;;5093718;28;20475;-69
2023/03/29 01:54:07;;;;;;;11.18;10.57;;;;;;;;;;5107125;28;20067;-69
2023/03/29 01:56:35;;;;;;;11.68;10.98;;;;;;;;;;5086812;28;20425;-70
2023/03/29 01:59:02;;;;;;;11.23;10.63;;;;;;;;;;5110910;28;20047;-70
2023/03/29 02:01:30;;;;;;;10.90;10.30;;;;;;;;;;5117385;27;20023;-69
2023/03/29 02:03:58;;;;;;;10.73;10.15;;;;;;;;;;5112168;28;20368;-69
2023/03/29 02:06:25;;;;;;;10.40;9.90;;;;;;;;;;5111879;28;20028;-70
2023/03/29 02:08:51;;;;;;;10.27;9.77;;;;;;;;;;5112003;28;20098;-70
2023/03/29 02:11:18;;;;;;;10.80;10.20;;;;;;;;;;5110430;28;20034;-69
2023/03/29 02:13:44;;;;;;;10.73;10.13;;;;;;;;;;5111334;28;20020;-71
2023/03/29 02:16:13;;;;;;;10.45;9.95;;;;;;;;;;5092400;28;20424;-71
2023/03/29 02:18:40;;;;;;;10.20;9.70;;;;;;;;;;5126567;27;20436;-71
2023/03/29 02:21:06;;;;;;;11.30;10.70;;;;;;;;;;5112398;28;20027;-70
2023/03/29 02:23:37;;;;;;;10.85;10.25;;;;;;;;;;5112256;28;20019;-70
2023/03/29 02:26:05;;;;;;;11.20;10.60;;;;;;;;;;5093385;28;20487;-70
2023/03/29 02:28:32;;;;;;;11.13;10.50;;;;;;;;;;5110420;28;20107;-71
2023/03/29 02:31:16;;;;;;;11.40;10.77;;;;;;;;;;5108774;28;20024;-70
2023/03/29 02:34:01;;;;;;;10.80;10.20;;;;;;;;;;5093487;28;20076;-70
2023/03/29 02:36:42;;;;;;;10.40;9.90;;;;;;;;;;5111471;28;20517;-70
2023/03/29 02:39:08;;;;;;;11.07;10.48;;;;;;;;;;5111809;28;20102;-70
2023/03/29 02:41:35;;;;;;;11.90;11.20;;;;;;;;;;5110696;28;20020;-70
2023/03/29 02:44:03;;;;;;;10.88;10.27;;;;;;;;;;5111216;28;20553;-71
2023/03/29 02:46:28;;;;;;;10.60;10.10;;;;;;;;;;5098934;28;20031;-72
2023/03/29 02:48:54;;;;;;;10.90;10.30;;;;;;;;;;5110190;28;20084;-71
2023/03/29 02:51:25;;;;;;;10.43;9.93;;;;;;;;;;5111778;28;20060;-71
2023/03/29 02:53:53;;;;;;;10.70;10.10;;;;;;;;;;5117542;28;20019;-71
2023/03/29 02:56:19;;;;;;;10.48;9.95;;;;;;;;;;5110413;28;20221;-71
2023/03/29 02:58:45;;;;;;;11.05;10.45;;;;;;;;;;5111725;28;20514;-71
2023/03/29 03:01:11;;;;;;;11.05;10.45;;;;;;;;;;5112320;28;20479;-71
2023/03/29 03:03:37;;;;;;;10.80;10.20;;;;;;;;;;5111654;28;20020;-71
2023/03/29 03:06:02;;;;;;;10.95;10.35;;;;;;;;;;5106574;28;20500;-72
2023/03/29 03:08:28;;;;;;;10.80;10.20;;;;;;;;;;5096960;28;20020;-70
2023/03/29 03:10:53;;;;;;;10.65;10.05;;;;;;;;;;5111559;28;20024;-71
2023/03/29 03:13:19;;;;;;;10.75;10.15;;;;;;;;;;5111264;28;20644;-71
2023/03/29 03:15:47;;;;;;;10.63;10.07;;;;;;;;;;5111517;28;20091;-71
2023/03/29 03:18:13;;;;;;;11.80;11.10;;;;;;;;;;5102005;28;20051;-70
2023/03/29 03:20:39;;;;;;;9.93;9.43;;;;;;;;;;5112264;28;20040;-71
2023/03/29 03:23:07;;;;;;;10.30;9.80;;;;;;;;;;5112002;28;20051;-71
2023/03/29 03:25:34;;;;;;;11.43;10.73;;;;;;;;;;5108795;28;20378;-70
2023/03/29 03:27:59;;;;;;;10.43;9.93;;;;;;;;;;5078212;28;20015;-71
2023/03/29 03:30:26;;;;;;;10.23;9.73;;;;;;;;;;5111309;28;20057;-70
2023/03/29 03:32:53;;;;;;;10.70;10.10;;;;;;;;;;5106710;28;20093;-71
2023/03/29 03:35:18;;;;;;;10.93;10.32;;;;;;;;;;5114270;28;20031;-71
2023/03/29 03:37:44;;;;;;;10.48;9.98;;;;;;;;;;5096039;28;20007;-71
2023/03/29 03:40:10;;;;;;;11.07;10.48;;;;;;;;;;5110666;28;20016;-71
2023/03/29 03:42:36;;;;;;;11.43;10.73;;;;;;;;;;5087771;28;20020;-71
2023/03/29 03:45:01;;;;;;;12.38;11.57;;;;;;;;;;5112832;28;20035;-71
2023/03/29 03:47:27;;;;;;;10.45;9.95;;;;;;;;;;5114597;28;20027;-71
2023/03/29 03:49:52;;;;;;;10.88;10.27;;;;;;;;;;5093502;28;20020;-71
2023/03/29 03:52:18;;;;;;;11.65;10.95;;;;;;;;;;5096425;27;20415;-71
2023/03/29 03:54:45;;;;;;;10.70;10.13;;;;;;;;;;5125249;27;20023;-71
2023/03/29 03:57:11;;;;;;;10.48;9.98;;;;;;;;;;5114525;28;20008;-71
2023/03/29 03:59:37;;;;;;;10.60;10.00;;;;;;;;;;5105037;28;20391;-71
2023/03/29 04:02:03;;;;;;;11.02;10.43;;;;;;;;;;5103042;27;20024;-70
2023/03/29 04:04:29;;;;;;;10.85;10.25;;;;;;;;;;5106623;28;20532;-71
2023/03/29 04:07:01;;;;;;;10.55;10.00;;;;;;;;;;5092208;28;20026;-70
2023/03/29 04:09:28;;;;;;;10.60;10.00;;;;;;;;;;5101925;28;20080;-70
2023/03/29 04:11:53;;;;;;;10.32;9.80;;;;;;;;;;5094645;28;20027;-70
2023/03/29 04:14:19;;;;;;;11.07;10.40;;;;;;;;;;5109348;28;20024;-70
2023/03/29 04:16:44;;;;;;;11.23;10.52;;;;;;;;;;5113846;28;20490;-71
2023/03/29 04:19:12;;;;;;;10.48;9.88;;;;;;;;;;5113312;28;20038;-69
2023/03/29 04:21:38;;;;;;;10.23;9.63;;;;;;;;;;5113645;28;20019;-69
2023/03/29 04:24:03;;;;;;;10.00;9.50;;;;;;;;;;5113486;28;20022;-70
2023/03/29 04:26:29;;;;;;;10.32;9.73;;;;;;;;;;5109998;28;20387;-70
2023/03/29 04:28:54;;;;;;;9.40;8.93;;;;;;;;;;5099967;28;20536;-70
2023/03/29 04:31:20;;;;;;;9.85;9.35;;;;;;;;;;5084417;28;20539;-69
2023/03/29 04:33:46;;;;;;;10.43;9.85;;;;;;;;;;5095104;28;20475;-70
2023/03/29 04:36:12;;;;;;;10.55;9.95;;;;;;;;;;5113077;28;20007;-69
2023/03/29 04:38:40;;;;;;;10.43;9.82;;;;;;;;;;5112305;28;20008;-70
2023/03/29 04:41:07;;;;;;;10.50;9.90;;;;;;;;;;5104262;28;20019;-70
2023/03/29 04:43:33;;;;;;;11.60;10.90;;;;;;;;;;5112399;28;20024;-70
2023/03/29 04:45:58;;;;;;;11.15;10.52;;;;;;;;;;5108604;28;20034;-70
2023/03/29 04:48:24;;;;;;;11.38;10.73;;;;;;;;;;5101644;28;20020;-70
2023/03/29 04:50:50;;;;;;;10.73;10.13;;;;;;;;;;5101375;28;20359;-71
2023/03/29 04:53:15;;;;;;;10.77;10.18;;;;;;;;;;5112478;28;20011;-71
2023/03/29 04:55:41;;;;;;;9.93;9.43;;;;;;;;;;5107815;28;20015;-70
2023/03/29 04:58:07;;;;;;;10.23;9.73;;;;;;;;;;5105308;27;20020;-72
2023/03/29 05:00:33;;;;;;;10.55;10.05;;;;;;;;;;5104110;28;20117;-71
2023/03/29 05:02:59;;;;;;;10.50;10.00;;;;;;;;;;5089912;28;20139;-69
2023/03/29 05:05:24;;;;;;;10.50;10.00;;;;;;;;;;5096049;28;20056;-69
2023/03/29 05:07:49;;;;;;;11.02;10.43;;;;;;;;;;5110040;28;20457;-69
2023/03/29 05:10:15;;;;;;;11.60;11.00;;;;;;;;;;5098114;28;20542;-69
2023/03/29 05:12:40;;;;;;;11.60;11.00;;;;;;;;;;5112112;28;20020;-70
2023/03/29 05:15:07;;;;;;;10.65;10.15;;;;;;;;;;5105968;28;20031;-69
2023/03/29 05:17:33;;;;;;;12.18;11.50;;;;;;;;;;5105916;28;20045;-69
2023/03/29 05:20:00;;;;;;;11.20;10.63;;;;;;;;;;5099414;28;20024;-70
2023/03/29 05:22:26;;;;;;;11.18;10.57;;;;;;;;;;5105762;28;20024;-70
2023/03/29 05:24:51;;;;;;;11.35;10.75;;;;;;;;;;5112757;27;20015;-70
2023/03/29 05:27:17;;;;;;;11.35;10.75;;;;;;;;;;5102928;28;20059;-70
2023/03/29 05:29:43;;;;;;;10.38;9.88;;;;;;;;;;5107326;28;20019;-70
2023/03/29 05:32:09;;;;;;;11.48;10.88;;;;;;;;;;5102799;28;20027;-70
2023/03/29 05:34:35;;;;;;;10.38;9.88;;;;;;;;;;5109341;28;20032;-70
2023/03/29 05:37:00;;;;;;;10.32;9.82;;;;;;;;;;5107191;28;20020;-70
2023/03/29 05:39:25;;;;;;;10.60;10.10;;;;;;;;;;5102949;28;20082;-70
2023/03/29 05:41:51;;;;;;;11.45;10.85;;;;;;;;;;5110185;28;20096;-70
2023/03/29 05:44:17;;;;;;;11.10;10.60;;;;;;;;;;5112285;28;20108;-70
2023/03/29 05:46:42;;;;;;;10.63;10.13;;;;;;;;;;5096707;27;20027;-70
2023/03/29 05:49:08;;;;;;;11.48;10.88;;;;;;;;;;5109302;28;20028;-70
2023/03/29 05:51:34;;;;;;;11.55;10.95;;;;;;;;;;5108867;28;20031;-71
2023/03/29 05:54:00;;;;;;;11.18;10.68;;;;;;;;;;5106725;27;20376;-70
2023/03/29 05:56:25;;;;;;;11.18;10.68;;;;;;;;;;5110942;28;20065;-70
2023/03/29 05:58:52;;;;;;;11.05;10.55;;;;;;;;;;5095913;28;20097;-69
2023/03/29 06:01:17;;;;;;;10.98;10.48;;;;;;;;;;5097845;28;20027;-71
2023/03/29 06:03:44;;;;;;;10.60;10.10;;;;;;;;;;5109945;28;20020;-70
2023/03/29 06:06:13;;;;;;;11.30;10.80;;;;;;;;;;5108749;28;20062;-63
2023/03/29 06:08:39;;;;;;;10.50;10.00;;;;;;;;;;5111095;28;20015;-64
2023/03/29 06:11:07;;;;;;;11.15;10.65;;;;;;;;;;5093413;28;20089;-63
2023/03/29 06:13:33;;;;;;;10.80;10.30;;;;;;;;;;5111513;28;20016;-63
2023/03/29 06:15:58;;;;;;;11.18;10.68;;;;;;;;;;5111876;28;20077;-64
2023/03/29 06:18:24;;;;;;;11.00;10.50;;;;;;;;;;5110575;28;20011;-64
2023/03/29 06:20:50;;;;;;;11.02;10.52;;;;;;;;;;5106511;28;20012;-65
2023/03/29 06:23:16;;;;;;;11.70;11.10;;;;;;;;;;5115839;28;20030;-64
2023/03/29 06:25:43;;;;;;;10.95;10.45;;;;;;;;;;5110854;28;20436;-63
2023/03/29 06:28:08;;;;;;;11.32;10.80;;;;;;;;;;5099828;28;20065;-64
2023/03/29 06:30:33;;;;;;;10.43;9.93;;;;;;;;;;5106089;28;20471;-68
2023/03/29 06:32:59;;;;;;;10.50;10.00;;;;;;;;;;5099684;28;20016;-66
2023/03/29 06:35:25;;;;;;;10.80;10.30;;;;;;;;;;5102636;28;20148;-68
2023/03/29 06:37:52;;;;;;;10.70;10.20;;;;;;;;;;5108949;28;20019;-68
2023/03/29 06:40:18;;;;;;;10.77;10.27;;;;;;;;;;5105062;28;20115;-67
2023/03/29 06:42:44;;;;;;;11.15;10.65;;;;;;;;;;5097934;28;20146;-67
2023/03/29 06:45:10;;;;;;;11.20;10.68;;;;;;;;;;5099933;28;20399;-67
2023/03/29 06:47:35;;;;;;;10.70;10.20;;;;;;;;;;5108213;28;20100;-68
2023/03/29 06:50:00;;;;;;;11.40;10.80;;;;;;;;;;5104574;28;20475;-68
2023/03/29 06:52:26;;;;;;;11.68;11.07;;;;;;;;;;5110880;28;20047;-68
2023/03/29 06:54:51;;;;;;;10.80;10.30;;;;;;;;;;5111201;28;20102;-68
2023/03/29 06:57:17;;;;;;;11.65;11.05;;;;;;;;;;5105923;28;20114;-68
2023/03/29 06:59:42;;;;;;;10.43;9.93;;;;;;;;;;5105587;28;20119;-66
2023/03/29 07:02:08;;;;;;;10.82;10.32;;;;;;;;;;5105720;28;20011;-67
2023/03/29 07:04:34;;;;;;;10.60;10.10;;;;;;;;;;5113509;28;20027;-68
2023/03/29 07:07:03;;;;;;;10.82;10.32;;;;;;;;;;5109464;28;20608;-71
2023/03/29 07:09:29;;;;;;;11.32;10.75;;;;;;;;;;5120164;27;20480;-71
2023/03/29 07:11:55;;;;;;;11.05;10.55;;;;;;;;;;5096822;28;20595;-71
2023/03/29 07:14:20;;;;;;;10.48;9.98;;;;;;;;;;5115389;28;20016;-66
2023/03/29 07:16:45;;;;;;;13.65;12.85;;;;;;;;;;5102730;27;20069;-66
2023/03/29 07:19:11;;;;;;;12.20;11.52;;;;;;;;;;5099015;27;20104;-65
2023/03/29 07:21:36;;;;;;;11.88;11.27;;;;;;;;;;5098087;28;20055;-68
2023/03/29 07:24:03;;;;;;;12.55;11.85;;;;;;;;;;5103740;28;20031;-65
2023/03/29 07:26:29;;;;;;;12.15;11.55;;;;;;;;;;5106300;28;20066;-66
2023/03/29 07:28:55;;;;;;;10.95;10.43;;;;;;;;;;5112988;27;20058;-66
2023/03/29 07:31:20;;;;;;;11.18;10.57;;;;;;;;;;5102571;28;20027;-65
2023/03/29 07:33:48;;;;;;;11.55;10.95;;;;;;;;;;5100773;27;20019;-66
2023/03/29 07:36:14;;;;;;;12.82;12.13;;;;;;;;;;5104821;27;20383;-65
2023/03/29 07:38:39;;;;;;;12.85;12.15;;;;;;;;;;5111972;27;20019;-65
2023/03/29 07:41:05;;;;;;;11.23;10.63;;;;;;;;;;5092767;28;20501;-69
2023/03/29 07:43:31;;;;;;;11.38;10.77;;;;;;;;;;5093252;27;20046;-65
2023/03/29 07:45:59;;;;;;;11.48;10.88;;;;;;;;;;5117487;27;20015;-67
2023/03/29 07:48:24;;;;;;;11.85;11.25;;;;;;;;;;5112628;27;20023;-69
2023/03/29 07:50:50;;;;;;;11.80;11.20;;;;;;;;;;5107979;27;20016;-72
2023/03/29 07:53:16;;;;;;;11.25;10.65;;;;;;;;;;5115344;27;20015;-66
2023/03/29 07:55:45;;;;;;;12.30;11.60;;;;;;;;;;5092159;28;20102;-66
2023/03/29 07:58:11;;;;;;;12.25;11.55;;;;;;;;;;5101091;27;20072;-69
2023/03/29 08:00:37;;;;;;;11.50;10.90;;;;;;;;;;5108803;28;20011;-71
2023/03/29 08:03:02;;;;;;;13.15;12.35;;;;;;;;;;5114380;27;20019;-70
2023/03/29 08:05:28;;;;;;;12.55;11.82;;;;;;;;;;5110150;28;20500;-65
2023/03/29 08:07:53;;;;;;;12.75;11.98;;;;;;;;;;5111140;27;20022;-65
2023/03/29 08:10:20;;;;;;;11.73;11.02;;;;;;;;;;5115387;27;20024;-69
2023/03/29 08:12:47;;;;;;;11.30;10.70;;;;;;;;;;5103260;27;20103;-67
2023/03/29 08:15:12;;;;;;;11.73;11.02;;;;;;;;;;5095238;27;20036;-68
2023/03/29 08:17:38;;;;;;;12.18;11.48;;;;;;;;;;5103908;27;20118;-71
2023/03/29 08:20:04;;;;;;;11.88;11.18;;;;;;;;;;5098286;28;20020;-71
2023/03/29 08:22:31;;;;;;;12.63;11.82;;;;;;;;;;5103391;28;20016;-66
2023/03/29 08:24:56;;;;;;;11.60;10.90;;;;;;;;;;5104134;27;20077;-68
2023/03/29 08:27:21;;;;;;;12.02;11.32;;;;;;;;;;5108628;28;20031;-69
2023/03/29 08:29:47;;;;;;;11.13;10.52;;;;;;;;;;5125197;27;20094;-68
2023/03/29 08:32:13;;;;;;;12.77;11.98;;;;;;;;;;5110029;27;20126;-69
2023/03/29 08:34:38;;;;;;;13.07;12.27;;;;;;;;;;5101378;28;20032;-67
2023/03/29 08:37:03;;;;;;;11.90;11.20;;;;;;;;;;5113869;27;20077;-70
2023/03/29 08:39:30;;;;;;;12.07;11.38;;;;;;;;;;5110815;27;20417;-70
2023/03/29 08:41:58;;;;;;;12.25;11.50;;;;;;;;;;5102456;27;20016;-64
2023/03/29 08:44:33;;;;;;;12.52;11.73;;;;;;;;;;5120472;27;20058;-63
2023/03/29 08:47:06;;;;;;;11.50;10.80;;;;;;;;;;5106908;27;20584;-65
2023/03/29 08:49:32;;;;;;;13.40;12.50;;;;;;;;;;5108560;27;20024;-63
2023/03/29 08:51:59;;;;;;;11.20;10.60;;;;;;;;;;5107676;28;20023;-63
2023/03/29 08:54:27;;;;;;;10.27;9.77;;;;;;;;;;5112144;28;20023;-69
2023/03/29 08:56:56;;;;;;;11.48;10.77;;;;;;;;;;5109011;27;20042;-66
2023/03/29 08:59:24;;;;;;;12.57;11.77;;;;;;;;;;5091904;27;20044;-64
2023/03/29 09:01:52;;;;;;;12.50;11.70;;;;;;;;;;5096094;27;20051;-65
2023/03/29 09:04:21;;;;;;;12.35;11.55;;;;;;;;;;5101981;27;20061;-64
2023/03/29 09:06:47;;;;;;;14.05;13.05;;;;;;;;;;5098482;27;20498;-66
2023/03/29 09:09:22;;;;;;;13.32;12.43;;;;;;;;;;5093816;27;20055;-65
2023/03/29 09:11:55;;;;;;;11.70;11.00;;;;;;;;;;5100667;27;20027;-65
2023/03/29 09:14:20;;;;;;;12.50;11.70;;;;;;;;;;5097269;27;20498;-66
2023/03/29 09:16:48;;;;;;;12.07;11.38;;;;;;;;;;5096242;28;20045;-63
2023/03/29 09:19:33;;;;;;;13.18;12.27;;;;;;;;;;5110617;27;20035;-66
2023/03/29 09:21:58;;;;;;;12.27;11.48;;;;;;;;;;5098820;27;20084;-66
2023/03/29 09:24:30;;;;;;;12.20;11.43;;;;;;;;;;5072417;28;20218;-66
2023/03/29 09:27:07;;;;;;;11.38;10.70;;;;;;;;;;5109345;27;20028;-68
2023/03/29 09:29:51;;;;;;;12.50;11.70;;;;;;;;;;5094792;27;20343;-67
2023/03/29 09:32:30;;;;;;;11.45;10.75;;;;;;;;;;5104223;27;20092;-65
2023/03/29 09:34:59;;;;;;;11.57;10.88;;;;;;;;;;5091904;28;20095;-66
2023/03/29 09:37:29;;;;;;;13.43;12.48;;;;;;;;;;5111003;27;20099;-66
2023/03/29 09:39:56;;;;;;;13.15;12.25;;;;;;;;;;5104831;27;20092;-66
2023/03/29 09:42:22;;;;;;;11.90;11.20;;;;;;;;;;5094423;27;20015;-64
2023/03/29 09:44:51;;;;;;;12.40;11.60;;;;;;;;;;5096880;27;20035;-66
2023/03/29 09:47:19;;;;;;;12.95;12.05;;;;;;;;;;5100897;27;20028;-66
2023/03/29 09:49:46;;;;;;;11.15;10.45;;;;;;;;;;5092583;28;20036;-66
2023/03/29 09:52:13;;;;;;;11.52;10.82;;;;;;;;;;5099255;28;20042;-66
2023/03/29 09:54:39;;;;;;;12.38;11.57;;;;;;;;;;5098408;27;20027;-65
2023/03/29 09:57:04;;;;;;;11.63;10.93;;;;;;;;;;5095429;27;20031;-65
2023/03/29 09:59:30;;;;;;;11.85;11.15;;;;;;;;;;5096439;27;20040;-66
2023/03/29 10:02:04;;;;;;;12.30;11.50;;;;;;;;;;5112584;27;20027;-67
2023/03/29 10:04:30;;;;;;;12.77;11.90;;;;;;;;;;5107148;28;20114;-66
2023/03/29 10:06:57;;;;;;;11.65;10.95;;;;;;;;;;5107991;27;20102;-66
2023/03/29 10:09:26;;;;;;;12.93;12.02;;;;;;;;;;5105069;27;20031;-66
2023/03/29 10:11:55;;;;;;;12.15;11.35;;;;;;;;;;5097079;27;20027;-66
2023/03/29 10:14:41;;;;;;;12.60;11.80;;;;;;;;;;5111720;28;20031;-66
2023/03/29 10:17:20;;;;;;;11.75;11.05;;;;;;;;;;5107161;27;20435;-68
2023/03/29 10:19:48;;;;;;;11.60;10.90;;;;;;;;;;5095589;27;20011;-64
2023/03/29 10:22:31;;;;;;;11.90;11.15;;;;;;;;;;5104442;28;20570;-65
2023/03/29 10:24:56;;;;;;;12.07;11.27;;;;;;;;;;5104227;28;20028;-63
2023/03/29 10:27:26;;;;;;;12.85;11.95;;;;;;;;;;5105384;28;20050;-63
2023/03/29 10:29:52;;;;;;;12.77;11.88;;;;;;;;;;5107594;28;20027;-64
2023/03/29 10:32:24;;;;;;;13.18;12.27;;;;;;;;;;5093587;28;20030;-64
2023/03/29 10:34:50;;;;;;;13.73;12.73;;;;;;;;;;5108841;28;20110;-65
2023/03/29 10:37:19;;;;;;;12.70;11.88;;;;;;;;;;5106982;28;20099;-64
2023/03/29 10:39:48;;;;;;;13.20;12.30;;;;;;;;;;5095344;27;20103;-64
2023/03/29 10:42:16;;;;;;;11.73;11.02;;;;;;;;;;5100660;27;20020;-64
2023/03/29 10:44:41;;;;;;;13.20;12.30;;;;;;;;;;5099240;27;20653;-66
2023/03/29 10:47:18;;;;;;;11.70;11.00;;;;;;;;;;5095628;27;20073;-66
2023/03/29 10:49:45;;;;;;;11.05;10.40;;;;;;;;;;5107064;27;20027;-65
2023/03/29 10:52:14;;;;;;;11.57;10.88;;;;;;;;;;5102135;28;20054;-64
2023/03/29 10:54:39;;;;;;;12.48;11.68;;;;;;;;;;5101394;27;20031;-65
2023/03/29 10:57:08;;;;;;;12.68;11.85;;;;;;;;;;5103909;28;20020;-64
2023/03/29 10:59:45;;;;;;;11.93;11.20;;;;;;;;;;5107393;27;20071;-66
2023/03/29 11:02:13;;;;;;;11.77;11.07;;;;;;;;;;5094069;27;20026;-64
2023/03/29 11:04:47;;;;;;;11.90;11.18;;;;;;;;;;5100278;27;20326;-67
2023/03/29 11:07:31;;;;;;;13.20;12.30;;;;;;;;;;5097167;28;20123;-66
2023/03/29 11:09:56;;;;;;;13.32;12.43;;;;;;;;;;5112875;27;20035;-65
2023/03/29 11:12:25;;;;;;;12.52;11.73;;;;;;;;;;5109052;27;20365;-66
2023/03/29 11:14:56;;;;;;;12.05;11.32;;;;;;;;;;5102977;27;20020;-67
2023/03/29 11:17:22;;;;;;;12.45;11.65;;;;;;;;;;5107927;27;20024;-65
2023/03/29 11:19:59;;;;;;;11.98;11.18;;;;;;;;;;5112434;27;20015;-66
2023/03/29 11:22:40;;;;;;;12.57;11.73;;;;;;;;;;5090486;28;20476;-64
2023/03/29 11:25:31;;;;;;;12.30;11.50;;;;;;;;;;5107849;27;20061;-65
2023/03/29 11:28:15;;;;;;;11.50;10.80;;;;;;;;;;5088563;27;20065;-63
2023/03/29 11:30:46;;;;;;;12.38;11.55;;;;;;;;;;5101552;27;20020;-67
2023/03/29 11:33:37;;;;;;;11.32;10.63;;;;;;;;;;5101422;27;20080;-64
2023/03/29 11:36:06;;;;;;;10.25;9.70;;;;;;;;;;5107437;27;20031;-68
2023/03/29 11:38:36;;;;;;;12.45;11.63;;;;;;;;;;5105342;27;20028;-68
2023/03/29 11:41:11;;;;;;;11.65;10.95;;;;;;;;;;5091359;28;20220;-66
2023/03/29 11:43:41;;;;;;;12.10;11.30;;;;;;;;;;5102949;27;20611;-66
2023/03/29 11:46:13;;;;;;;11.00;10.40;;;;;;;;;;5098396;27;20050;-65
2023/03/29 11:48:42;;;;;;;12.15;11.35;;;;;;;;;;5099255;28;20023;-64
2023/03/29 11:51:17;;;;;;;11.43;10.73;;;;;;;;;;5109172;27;20028;-69
2023/03/29 11:53:48;;;;;;;12.88;11.98;;;;;;;;;;5088618;27;20118;-67
2023/03/29 11:56:20;;;;;;;12.02;11.23;;;;;;;;;;5098145;27;20028;-67
2023/03/29 11:58:49;;;;;;;11.38;10.68;;;;;;;;;;5097201;28;20098;-67
2023/03/29 12:01:41;;;;;;;11.43;10.73;;;;;;;;;;5094221;28;20027;-67
2023/03/29 12:04:10;;;;;;;12.55;11.70;;;;;;;;;;5103662;27;20149;-65
2023/03/29 12:06:39;;;;;;;11.60;10.88;;;;;;;;;;5106506;27;20028;-65
2023/03/29 12:09:05;;;;;;;12.10;11.30;;;;;;;;;;5109114;27;20123;-65
2023/03/29 12:11:37;;;;;;;12.63;11.75;;;;;;;;;;5108240;27;20148;-67
2023/03/29 12:14:12;;;;;;;11.98;11.18;;;;;;;;;;5103514;27;20026;-67
2023/03/29 12:16:48;;;;;;;12.10;11.30;;;;;;;;;;5102404;27;20543;-66
2023/03/29 12:19:43;;;;;;;11.45;10.75;;;;;;;;;;5109197;27;20027;-69
2023/03/29 12:22:08;;;;;;;13.07;12.18;;;;;;;;;;5051842;28;20140;-67
2023/03/29 12:24:36;;;;;;;11.55;10.85;;;;;;;;;;5093527;27;20024;-68
2023/03/29 12:27:09;;;;;;;11.45;10.75;;;;;;;;;;5097090;28;20023;-64
2023/03/29 12:29:43;;;;;;;11.40;10.70;;;;;;;;;;5097402;27;20039;-66
2023/03/29 12:32:32;;;;;;;11.93;11.20;;;;;;;;;;5104531;27;20027;-66
2023/03/29 12:35:16;;;;;;;12.52;11.68;;;;;;;;;;5101688;28;20032;-67
2023/03/29 12:37:42;;;;;;;11.57;10.88;;;;;;;;;;5102991;27;20043;-67
2023/03/29 12:40:15;;;;;;;10.85;10.25;;;;;;;;;;5106941;27;20534;-67
2023/03/29 12:42:55;;;;;;;12.32;11.52;;;;;;;;;;5101671;28;20027;-68
2023/03/29 12:45:32;;;;;;;11.43;10.73;;;;;;;;;;5110394;27;20030;-67
2023/03/29 12:47:58;;;;;;;10.45;9.85;;;;;;;;;;5116322;27;20505;-67
2023/03/29 12:50:31;;;;;;;10.48;9.88;;;;;;;;;;5112180;27;20482;-67
2023/03/29 12:53:03;;;;;;;11.70;11.00;;;;;;;;;;5110650;27;20019;-67
2023/03/29 12:55:48;;;;;;;11.30;10.60;;;;;;;;;;5110963;27;20020;-66
2023/03/29 12:58:34;;;;;;;10.82;10.23;;;;;;;;;;5095981;27;20043;-67
2023/03/29 13:01:04;;;;;;;11.50;10.80;;;;;;;;;;5069877;28;20629;-66
2023/03/29 13:03:42;;;;;;;12.52;11.73;;;;;;;;;;5112617;27;20055;-69
2023/03/29 13:06:08;;;;;;;11.55;10.85;;;;;;;;;;5105550;27;20505;-66
2023/03/29 13:08:36;;;;;;;11.23;10.52;;;;;;;;;;5114964;27;20030;-69
2023/03/29 13:11:02;;;;;;;11.70;10.98;;;;;;;;;;5109156;27;20073;-66
2023/03/29 13:13:32;;;;;;;11.95;11.18;;;;;;;;;;5100050;27;20023;-65
2023/03/29 13:16:10;;;;;;;12.13;11.35;;;;;;;;;;5105800;27;20007;-65
2023/03/29 13:18:45;;;;;;;11.07;10.45;;;;;;;;;;5101074;27;20016;-68
2023/03/29 13:21:14;;;;;;;12.40;11.60;;;;;;;;;;5082248;28;20015;-68
2023/03/29 13:23:57;;;;;;;13.35;12.45;;;;;;;;;;5097046;27;20523;-67
2023/03/29 13:26:32;;;;;;;12.60;11.80;;;;;;;;;;5100774;27;20031;-67
2023/03/29 13:29:12;;;;;;;10.80;10.20;;;;;;;;;;5089606;27;20111;-67
2023/03/29 13:31:42;;;;;;;11.13;10.48;;;;;;;;;;5108353;27;20054;-68
2023/03/29 13:34:37;;;;;;;10.80;10.20;;;;;;;;;;5101662;28;20024;-68
2023/03/29 13:37:03;;;;;;;;;;;;;;;;;;5090334;27;20727;-66
2023/03/29 13:39:35;;;;;;;11.98;11.18;;;;;;;;;;5106192;27;20025;-65
2023/03/29 13:42:16;;;;;;;12.10;11.30;;;;;;;;;;5101448;27;20027;-66
2023/03/29 13:44:44;;;;;;;11.52;10.82;;;;;;;;;;5104862;28;20020;-66
2023/03/29 13:47:25;;;;;;;12.23;11.43;;;;;;;;;;5106569;27;20038;-67
2023/03/29 13:49:55;;;;;;;12.15;11.35;;;;;;;;;;5099571;27;20011;-68
2023/03/29 13:52:24;;;;;;;12.23;11.43;;;;;;;;;;5102744;28;20016;-68
2023/03/29 13:55:00;;;;;;;12.23;11.43;;;;;;;;;;5111104;27;20024;-70
2023/03/29 13:57:39;;;;;;;12.32;11.52;;;;;;;;;;5095219;27;20474;-66
2023/03/29 14:00:11;;;;;;;11.35;10.65;;;;;;;;;;5101314;27;20075;-67
2023/03/29 14:02:40;;;;;;;11.60;10.88;;;;;;;;;;5101039;27;20052;-67
2023/03/29 14:05:08;;;;;;;11.27;10.57;;;;;;;;;;5106839;27;20373;-66
2023/03/29 14:07:36;;;;;;;11.63;10.93;;;;;;;;;;5109800;27;20111;-67
2023/03/29 14:10:01;;;;;;;11.70;11.00;;;;;;;;;;5097388;28;20454;-66
2023/03/29 14:12:31;;;;;;;11.52;10.82;;;;;;;;;;5109289;27;20172;-66
2023/03/29 14:14:59;;;;;;;11.07;10.43;;;;;;;;;;5102659;27;20088;-67
2023/03/29 14:17:25;;;;;;;12.25;11.45;;;;;;;;;;5097381;27;20122;-67
2023/03/29 14:19:50;;;;;;;12.82;11.95;;;;;;;;;;5104443;28;20436;-65
2023/03/29 14:22:18;;;;;;;11.90;11.18;;;;;;;;;;5097403;28;20020;-66
2023/03/29 14:24:50;;;;;;;12.18;11.38;;;;;;;;;;5100407;28;20375;-68
2023/03/29 14:27:16;;;;;;;11.20;10.50;;;;;;;;;;5091110;28;20115;-68